createdAt,value
2019-04-22T00:01:19.782Z,12.30
2019-04-22T00:03:53.293Z,12.30
2019-04-22T00:06:48.039Z,12.30
2019-04-22T00:09:19.535Z,12.20
2019-04-22T00:11:55.695Z,12.30
2019-04-22T00:14:15.074Z,12.30
2019-04-22T00:19:33.861Z,12.30
2019-04-22T00:22:03.334Z,12.30
2019-04-22T00:24:33.585Z,12.40
2019-04-22T00:27:03.923Z,12.50
2019-04-22T00:29:52.265Z,12.50
2019-04-22T00:32:11.670Z,12.50
2019-04-22T00:34:48.539Z,12.50
2019-04-22T00:37:25.236Z,12.40
2019-04-22T00:40:15.950Z,12.40
2019-04-22T00:42:27.502Z,12.30
2019-04-22T00:45:09.458Z,12.30
2019-04-22T00:47:34.903Z,12.30
2019-04-22T00:52:41.634Z,12.40
2019-04-22T00:55:12.356Z,12.40
2019-04-22T00:57:44.221Z,12.40
2019-04-22T01:00:17.923Z,12.40
2019-04-22T01:02:48.310Z,12.40
2019-04-22T01:05:21.388Z,12.50
2019-04-22T01:07:49.898Z,12.50
2019-04-22T01:10:26.449Z,12.60
2019-04-22T01:12:57.229Z,12.60
2019-04-22T01:15:39.117Z,12.80
2019-04-22T01:18:08.260Z,13.00
2019-04-22T01:21:00.576Z,13.00
2019-04-22T01:23:05.493Z,13.20
2019-04-22T01:25:40.394Z,13.30
2019-04-22T01:28:06.399Z,13.40
2019-04-22T01:30:32.677Z,13.40
2019-04-22T01:33:03.551Z,13.60
2019-04-22T01:35:38.599Z,13.60
2019-04-22T01:38:13.382Z,13.60
2019-04-22T01:41:16.499Z,13.60
2019-04-22T01:43:59.257Z,13.60
2019-04-22T01:46:25.015Z,13.70
2019-04-22T01:48:57.400Z,13.60
2019-04-22T01:51:35.413Z,13.60
2019-04-22T01:54:04.143Z,13.70
2019-04-22T01:56:38.275Z,13.70
2019-04-22T01:58:54.906Z,13.60
2019-04-22T02:01:37.156Z,13.60
2019-04-22T02:04:08.910Z,13.50
2019-04-22T02:06:45.743Z,13.70
2019-04-22T02:09:20.392Z,13.70
2019-04-22T02:11:46.646Z,13.70
2019-04-22T02:14:20.691Z,13.80
2019-04-22T02:16:50.335Z,13.80
2019-04-22T02:19:22.518Z,13.70
2019-04-22T02:21:54.075Z,13.50
2019-04-22T02:24:27.819Z,13.30
2019-04-22T02:26:54.609Z,13.10
2019-04-22T02:29:37.307Z,13.10
2019-04-22T02:32:19.427Z,12.80
2019-04-22T02:34:39.852Z,12.70
2019-04-22T02:37:15.244Z,12.40
2019-04-22T02:39:50.463Z,12.10
2019-04-22T02:42:14.332Z,11.90
2019-04-22T02:49:55.189Z,11.50
2019-04-22T02:55:01.341Z,11.30
2019-04-22T03:00:25.076Z,11.10
2019-04-22T03:03:03.854Z,11.00
2019-04-22T03:05:13.142Z,10.90
2019-04-22T03:07:40.940Z,10.80
2019-04-22T03:10:37.275Z,10.70
2019-04-22T03:12:41.950Z,10.70
2019-04-22T03:15:12.158Z,10.60
2019-04-22T03:17:54.224Z,10.60
2019-04-22T03:20:27.430Z,10.60
2019-04-22T03:23:13.751Z,10.50
2019-04-22T03:25:53.537Z,10.50
2019-04-22T03:27:50.509Z,10.50
2019-04-22T03:30:56.445Z,10.40
2019-04-22T03:35:44.978Z,10.30
2019-04-22T03:40:47.285Z,10.30
2019-04-22T03:43:14.055Z,10.30
2019-04-22T03:45:37.966Z,10.20
2019-04-22T03:48:16.287Z,10.20
2019-04-22T03:50:42.514Z,10.10
2019-04-22T03:53:38.446Z,10.10
2019-04-22T03:56:13.248Z,10.10
2019-04-22T03:58:28.382Z,10.10
2019-04-22T04:03:39.991Z,10.10
2019-04-22T04:06:05.205Z,10.10
2019-04-22T04:08:39.137Z,10.10
2019-04-22T04:11:06.941Z,10.10
2019-04-22T04:16:21.362Z,10.00
2019-04-22T04:19:02.612Z,10.00
2019-04-22T04:29:22.622Z,10.00
2019-04-22T04:36:42.647Z,10.00
2019-04-22T04:39:15.080Z,10.10
2019-04-22T04:42:05.475Z,10.10
2019-04-22T04:44:23.404Z,10.10
2019-04-22T04:49:23.876Z,10.10
2019-04-22T04:54:30.527Z,10.20
2019-04-22T04:57:16.957Z,10.20
2019-04-22T04:59:50.932Z,10.30
2019-04-22T05:02:06.659Z,10.40
2019-04-22T05:04:46.500Z,10.50
2019-04-22T05:14:36.821Z,10.90
2019-04-22T05:17:18.834Z,10.90
2019-04-22T05:19:39.397Z,10.90
2019-04-22T05:24:56.255Z,10.90
2019-04-22T05:27:32.978Z,10.90
2019-04-22T05:30:08.398Z,11.00
2019-04-22T05:32:24.630Z,11.00
2019-04-22T05:34:52.821Z,11.10
2019-04-22T05:40:10.562Z,11.40
2019-04-22T05:42:28.440Z,11.70
2019-04-22T05:45:13.291Z,12.10
2019-04-22T05:47:41.850Z,12.50
2019-04-22T05:50:08.177Z,12.60
2019-04-22T05:52:46.844Z,12.70
2019-04-22T05:55:25.140Z,12.80
2019-04-22T05:57:51.244Z,13.00
2019-04-22T06:00:36.977Z,13.20
2019-04-22T06:03:07.238Z,13.20
2019-04-22T06:05:47.287Z,13.20
2019-04-22T06:08:04.116Z,13.20
2019-04-22T06:10:39.221Z,13.30
2019-04-22T06:13:06.704Z,13.50
2019-04-22T06:15:37.574Z,13.70
2019-04-22T06:18:22.563Z,13.90
2019-04-22T06:33:34.762Z,16.00
2019-04-22T06:36:08.693Z,16.20
2019-04-22T06:41:17.156Z,17.10
2019-04-22T06:43:55.940Z,17.50
2019-04-22T06:46:20.473Z,17.60
2019-04-22T06:48:47.946Z,17.30
2019-04-22T06:51:19.755Z,17.10
2019-04-22T06:53:54.066Z,17.00
2019-04-22T06:56:24.574Z,17.00
2019-04-22T06:58:59.425Z,17.30
2019-04-22T07:04:16.631Z,18.60
2019-04-22T07:06:42.339Z,19.40
2019-04-22T07:11:36.657Z,20.00
2019-04-22T07:14:22.384Z,19.60
2019-04-22T07:16:47.630Z,19.20
2019-04-22T07:19:26.575Z,18.70
2019-04-22T07:21:53.601Z,18.50
2019-04-22T07:24:35.694Z,18.30
2019-04-22T07:27:02.634Z,18.10
2019-04-22T07:29:25.291Z,17.80
2019-04-22T07:32:04.710Z,17.70
2019-04-22T07:34:33.286Z,17.80
2019-04-22T07:37:23.353Z,17.80
2019-04-22T07:39:35.650Z,17.70
2019-04-22T07:42:12.616Z,17.80
2019-04-22T07:44:45.089Z,18.00
2019-04-22T07:47:18.475Z,18.20
2019-04-22T07:49:50.836Z,18.60
2019-04-22T07:52:15.983Z,19.00
2019-04-22T07:54:52.518Z,19.00
2019-04-22T07:57:27.431Z,19.10
2019-04-22T07:59:58.047Z,19.30
2019-04-22T08:02:32.760Z,19.40
2019-04-22T08:05:05.356Z,19.30
2019-04-22T08:12:39.030Z,19.90
2019-04-22T08:15:12.678Z,19.30
2019-04-22T08:17:56.504Z,19.00
2019-04-22T08:20:18.900Z,18.80
2019-04-22T08:22:56.020Z,18.50
2019-04-22T08:25:22.028Z,18.50
2019-04-22T08:27:54.997Z,18.60
2019-04-22T08:30:28.806Z,18.60
2019-04-22T08:33:09.854Z,18.90
2019-04-22T08:35:40.877Z,19.50
2019-04-22T08:38:02.588Z,19.60
2019-04-22T08:40:45.569Z,19.70
2019-04-22T08:43:12.653Z,19.90
2019-04-22T08:45:46.449Z,20.00
2019-04-22T08:48:15.064Z,20.00
2019-04-22T08:50:48.905Z,20.20
2019-04-22T08:53:28.176Z,20.10
2019-04-22T08:55:57.950Z,20.20
2019-04-22T09:01:02.592Z,20.90
2019-04-22T09:03:23.937Z,20.80
2019-04-22T09:06:06.408Z,20.50
2019-04-22T09:08:34.199Z,20.40
2019-04-22T09:11:08.252Z,20.50
2019-04-22T09:13:43.806Z,20.40
2019-04-22T09:16:10.368Z,20.50
2019-04-22T09:18:42.964Z,20.40
2019-04-22T09:21:24.120Z,20.40
2019-04-22T09:23:54.031Z,20.10
2019-04-22T09:26:22.914Z,20.00
2019-04-22T09:31:24.250Z,20.10
2019-04-22T09:33:56.007Z,19.90
2019-04-22T09:39:00.845Z,20.10
2019-04-22T09:41:31.777Z,20.00
2019-04-22T09:44:05.644Z,20.20
2019-04-22T09:46:41.308Z,20.40
2019-04-22T09:49:12.285Z,20.70
2019-04-22T09:51:50.474Z,21.00
2019-04-22T09:54:26.548Z,21.20
2019-04-22T09:56:50.106Z,21.30
2019-04-22T09:59:20.194Z,21.10
2019-04-22T10:02:08.227Z,21.00
2019-04-22T10:04:29.125Z,20.90
2019-04-22T10:06:59.624Z,20.70
2019-04-22T10:12:02.638Z,20.70
2019-04-22T10:14:41.423Z,20.80
2019-04-22T10:17:07.772Z,20.90
2019-04-22T10:19:43.230Z,20.60
2019-04-22T10:22:19.532Z,20.50
2019-04-22T10:24:45.335Z,20.20
2019-04-22T10:27:32.726Z,20.40
2019-04-22T10:29:54.288Z,20.70
2019-04-22T10:32:27.637Z,21.20
2019-04-22T10:34:43.590Z,21.50
2019-04-22T10:37:11.742Z,21.40
2019-04-22T10:39:51.348Z,21.70
2019-04-22T10:42:17.409Z,21.70
2019-04-22T10:44:49.889Z,21.40
2019-04-22T10:47:20.597Z,20.90
2019-04-22T10:49:52.258Z,20.70
2019-04-22T10:52:23.668Z,20.40
2019-04-22T10:54:55.720Z,20.40
2019-04-22T10:57:27.728Z,20.50
2019-04-22T10:59:58.617Z,20.50
2019-04-22T11:02:29.862Z,20.60
2019-04-22T11:05:01.693Z,20.70
2019-04-22T11:07:40.433Z,20.50
2019-04-22T11:10:20.500Z,20.40
2019-04-22T11:12:39.545Z,20.40
2019-04-22T11:15:11.775Z,20.50
2019-04-22T11:17:43.774Z,20.60
2019-04-22T11:20:15.494Z,20.70
2019-04-22T11:22:46.711Z,20.80
2019-04-22T11:25:18.144Z,21.00
2019-04-22T11:27:49.368Z,21.60
2019-04-22T11:30:23.829Z,22.30
2019-04-22T11:32:54.226Z,22.20
2019-04-22T11:35:25.791Z,21.50
2019-04-22T11:37:56.835Z,21.10
2019-04-22T11:40:34.601Z,20.90
2019-04-22T11:43:01.773Z,20.70
2019-04-22T11:45:33.251Z,20.60
2019-04-22T11:48:05.499Z,20.70
2019-04-22T11:50:37.711Z,21.00
2019-04-22T11:53:08.956Z,21.30
2019-04-22T11:55:40.602Z,21.90
2019-04-22T11:58:12.703Z,21.90
2019-04-22T12:00:45.017Z,21.60
2019-04-22T12:03:16.877Z,21.70
2019-04-22T12:05:48.074Z,21.70
2019-04-22T12:08:18.916Z,21.60
2019-04-22T12:10:54.813Z,22.10
2019-04-22T12:13:22.047Z,22.70
2019-04-22T12:15:53.411Z,23.10
2019-04-22T12:18:24.940Z,23.40
2019-04-22T12:20:57.079Z,23.90
2019-04-22T12:23:29.295Z,23.70
2019-04-22T12:26:05.900Z,23.40
2019-04-22T12:28:33.012Z,23.70
2019-04-22T12:31:05.725Z,24.80
2019-04-22T12:33:37.125Z,24.40
2019-04-22T12:36:11.009Z,24.10
2019-04-22T12:38:41.856Z,23.90
2019-04-22T12:41:14.004Z,23.80
2019-04-22T12:43:45.193Z,24.20
2019-04-22T12:46:16.376Z,24.00
2019-04-22T12:48:47.231Z,24.20
2019-04-22T12:51:18.879Z,24.30
2019-04-22T12:53:50.909Z,24.30
2019-04-22T12:56:21.854Z,25.00
2019-04-22T12:58:53.945Z,25.10
2019-04-22T13:01:24.823Z,25.10
2019-04-22T13:04:01.427Z,25.70
2019-04-22T13:06:28.034Z,26.00
2019-04-22T13:09:00.047Z,26.00
2019-04-22T13:11:34.817Z,25.80
2019-04-22T13:14:04.953Z,25.30
2019-04-22T13:16:35.855Z,25.80
2019-04-22T13:19:11.217Z,25.60
2019-04-22T13:21:40.578Z,25.70
2019-04-22T13:24:11.392Z,25.50
2019-04-22T13:26:43.075Z,24.60
2019-04-22T13:29:15.077Z,23.40
2019-04-22T13:31:46.572Z,22.80
2019-04-22T13:34:25.844Z,22.50
2019-04-22T13:36:50.323Z,22.70
2019-04-22T13:39:22.564Z,23.20
2019-04-22T13:41:59.293Z,23.70
2019-04-22T13:44:26.019Z,24.10
2019-04-22T13:47:17.022Z,24.70
2019-04-22T13:50:06.041Z,25.00
2019-04-22T13:52:45.143Z,25.70
2019-04-22T13:55:22.064Z,25.80
2019-04-22T13:57:27.528Z,26.40
2019-04-22T13:59:45.968Z,26.50
2019-04-22T14:02:30.540Z,26.10
2019-04-22T14:05:01.356Z,25.40
2019-04-22T14:07:32.826Z,25.80
2019-04-22T14:10:04.413Z,26.50
2019-04-22T14:12:35.183Z,25.40
2019-04-22T14:15:06.820Z,26.10
2019-04-22T14:17:38.865Z,27.30
2019-04-22T14:20:10.920Z,28.10
2019-04-22T14:22:41.779Z,27.80
2019-04-22T14:25:14.404Z,26.50
2019-04-22T14:27:52.360Z,26.00
2019-04-22T14:30:18.813Z,26.40
2019-04-22T14:32:51.133Z,27.30
2019-04-22T14:35:22.974Z,27.30
2019-04-22T14:37:54.499Z,26.30
2019-04-22T14:40:28.119Z,26.10
2019-04-22T14:43:23.349Z,26.60
2019-04-22T14:46:03.955Z,25.70
2019-04-22T14:48:33.531Z,25.10
2019-04-22T14:50:51.851Z,25.30
2019-04-22T14:53:29.013Z,25.00
2019-04-22T14:55:40.337Z,24.80
2019-04-22T14:58:11.294Z,24.50
2019-04-22T15:00:42.363Z,24.30
2019-04-22T15:03:13.525Z,24.30
2019-04-22T15:05:44.431Z,24.80
2019-04-22T15:08:15.187Z,25.40
2019-04-22T15:10:46.165Z,24.60
2019-04-22T15:13:17.793Z,24.30
2019-04-22T15:16:26.025Z,24.40
2019-04-22T15:19:19.964Z,23.90
2019-04-22T15:21:52.493Z,23.20
2019-04-22T15:24:27.578Z,22.80
2019-04-22T15:27:00.576Z,22.30
2019-04-22T15:29:31.781Z,21.90
2019-04-22T15:32:03.212Z,21.80
2019-04-22T15:34:34.645Z,21.60
2019-04-22T15:37:06.560Z,21.60
2019-04-22T15:39:37.321Z,21.50
2019-04-22T15:42:17.080Z,21.50
2019-04-22T15:44:42.195Z,21.50
2019-04-22T15:47:13.353Z,21.50
2019-04-22T15:49:45.743Z,21.40
2019-04-22T15:52:16.796Z,21.40
2019-04-22T15:54:50.794Z,21.30
2019-04-22T15:57:20.390Z,21.30
2019-04-22T16:00:06.834Z,21.20
2019-04-22T16:02:23.683Z,21.20
2019-04-22T16:04:54.634Z,21.20
2019-04-22T16:07:27.298Z,21.20
2019-04-22T16:09:57.821Z,21.20
2019-04-22T16:12:35.912Z,21.10
2019-04-22T16:15:03.079Z,21.00
2019-04-22T16:17:34.741Z,20.90
2019-04-22T16:20:07.002Z,20.70
2019-04-22T16:23:03.451Z,20.80
2019-04-22T16:25:59.250Z,20.80
2019-04-22T16:28:31.311Z,20.90
2019-04-22T16:31:03.637Z,20.90
2019-04-22T16:33:36.423Z,20.90
2019-04-22T16:36:07.274Z,21.00
2019-04-22T16:38:38.386Z,20.90
2019-04-22T16:41:10.749Z,20.90
2019-04-22T16:43:42.849Z,20.90
2019-04-22T16:46:13.881Z,20.80
2019-04-22T16:48:45.411Z,20.80
2019-04-22T16:51:16.380Z,20.60
2019-04-22T16:53:47.526Z,20.60
2019-04-22T16:56:18.361Z,20.40
2019-04-22T16:58:50.581Z,20.30
2019-04-22T17:01:58.800Z,20.20
2019-04-22T17:04:46.578Z,20.10
2019-04-22T17:07:20.215Z,20.00
2019-04-22T17:09:52.153Z,20.00
2019-04-22T17:12:23.923Z,19.90
2019-04-22T17:15:01.812Z,19.80
2019-04-22T17:17:28.587Z,19.90
2019-04-22T17:19:59.662Z,19.80
2019-04-22T17:22:31.407Z,19.80
2019-04-22T17:25:02.732Z,19.80
2019-04-22T17:27:34.556Z,19.60
2019-04-22T17:30:08.514Z,19.60
2019-04-22T17:32:39.867Z,19.60
2019-04-22T17:35:12.444Z,19.50
2019-04-22T17:37:43.222Z,19.30
2019-04-22T17:40:29.896Z,19.30
2019-04-22T17:43:14.186Z,19.20
2019-04-22T17:46:17.695Z,19.20
2019-04-22T17:49:10.501Z,19.00
2019-04-22T17:51:50.354Z,18.90
2019-04-22T17:54:17.050Z,18.90
2019-04-22T17:56:49.680Z,18.80
2019-04-22T17:59:20.400Z,18.70
2019-04-22T18:01:51.532Z,18.60
2019-04-22T18:04:04.906Z,18.60
2019-04-22T18:07:05.432Z,18.60
2019-04-22T18:09:43.431Z,18.50
2019-04-22T18:12:05.413Z,18.40
2019-04-22T18:14:57.693Z,18.30
2019-04-22T18:17:13.505Z,18.20
2019-04-22T18:19:39.944Z,18.00
2019-04-22T18:22:10.563Z,17.90
2019-04-22T18:24:35.183Z,17.70
2019-04-22T18:27:31.946Z,17.60
2019-04-22T18:29:48.662Z,17.50
2019-04-22T18:32:09.938Z,17.40
2019-04-22T18:34:44.331Z,17.30
2019-04-22T18:37:19.877Z,17.10
2019-04-22T18:40:04.684Z,17.00
2019-04-22T18:42:27.020Z,17.00
2019-04-22T18:45:21.724Z,16.80
2019-04-22T18:47:32.391Z,16.80
2019-04-22T18:50:03.412Z,16.70
2019-04-22T18:53:10.099Z,16.60
2019-04-22T18:55:42.493Z,16.50
2019-04-22T18:58:14.611Z,16.40
2019-04-22T19:00:36.761Z,16.30
2019-04-22T19:03:15.992Z,16.20
2019-04-22T19:06:10.681Z,16.20
2019-04-22T19:08:33.369Z,16.10
2019-04-22T19:14:00.010Z,16.00
2019-04-22T19:16:25.558Z,16.00
2019-04-22T19:18:50.504Z,16.00
2019-04-22T19:21:14.894Z,15.90
2019-04-22T19:23:50.585Z,15.80
2019-04-22T19:26:30.853Z,15.70
2019-04-22T19:28:58.786Z,15.60
2019-04-22T19:31:40.748Z,15.50
2019-04-22T19:33:59.323Z,15.30
2019-04-22T19:36:36.409Z,15.20
2019-04-22T19:39:01.660Z,15.10
2019-04-22T19:41:37.697Z,15.00
2019-04-22T19:44:08.416Z,15.00
2019-04-22T19:46:43.757Z,14.90
2019-04-22T19:49:21.958Z,14.90
2019-04-22T19:51:53.677Z,14.80
2019-04-22T19:54:19.006Z,14.70
2019-04-22T19:56:42.799Z,14.60
2019-04-22T19:59:46.492Z,14.70
2019-04-22T20:02:35.859Z,14.60
2019-04-22T20:05:23.186Z,14.50
2019-04-22T20:07:41.605Z,14.40
2019-04-22T20:10:22.358Z,14.40
2019-04-22T20:12:50.164Z,14.30
2019-04-22T20:15:22.726Z,14.30
2019-04-22T20:18:22.386Z,14.30
2019-04-22T20:20:34.392Z,14.20
2019-04-22T20:23:02.348Z,14.20
2019-04-22T20:25:35.942Z,14.10
2019-04-22T20:28:17.719Z,14.10
2019-04-22T20:30:39.698Z,14.00
2019-04-22T20:33:13.847Z,13.90
2019-04-22T20:35:43.597Z,13.90
2019-04-22T20:38:19.764Z,13.80
2019-04-22T20:40:53.048Z,13.70
2019-04-22T20:43:33.322Z,13.70
2019-04-22T20:46:02.988Z,13.60
2019-04-22T20:48:17.587Z,13.70
2019-04-22T20:50:58.217Z,13.70
2019-04-22T20:53:36.204Z,13.70
2019-04-22T20:56:05.130Z,13.60
2019-04-22T20:58:42.194Z,13.50
2019-04-22T21:01:02.697Z,13.50
2019-04-22T21:03:33.352Z,13.40
2019-04-22T21:06:11.748Z,13.40
2019-04-22T21:08:52.349Z,13.40
2019-04-22T21:11:19.695Z,13.40
2019-04-22T21:13:51.800Z,13.40
2019-04-22T21:16:31.470Z,13.30
2019-04-22T21:18:47.364Z,13.20
2019-04-22T21:21:32.856Z,13.20
2019-04-22T21:23:55.475Z,13.20
2019-04-22T21:26:29.344Z,13.10
2019-04-22T21:29:04.405Z,13.10
2019-04-22T21:31:41.290Z,13.00
2019-04-22T21:34:06.091Z,13.00
2019-04-22T21:36:43.021Z,12.90
2019-04-22T21:39:12.505Z,12.90
2019-04-22T21:41:47.446Z,12.80
2019-04-22T21:44:18.473Z,12.80
2019-04-22T21:46:57.826Z,12.70
2019-04-22T21:49:25.444Z,12.70
2019-04-22T21:52:13.228Z,12.70
2019-04-22T21:54:31.659Z,12.70
2019-04-22T21:57:26.550Z,12.60
2019-04-22T22:00:00.703Z,12.60
2019-04-22T22:02:31.439Z,12.50
2019-04-22T22:04:55.186Z,12.50
2019-04-22T22:07:16.058Z,12.50
2019-04-22T22:10:04.221Z,12.50
2019-04-22T22:12:37.834Z,12.40
2019-04-22T22:15:06.911Z,12.40
2019-04-22T22:17:35.303Z,12.40
2019-04-22T22:20:13.333Z,12.30
2019-04-22T22:22:52.441Z,12.30
2019-04-22T22:25:21.238Z,12.20
2019-04-22T22:27:47.551Z,12.20
2019-04-22T22:30:48.531Z,12.10
2019-04-22T22:33:01.381Z,12.10
2019-04-22T22:35:34.899Z,12.00
2019-04-22T22:38:01.726Z,12.00
2019-04-22T22:40:21.079Z,11.90
2019-04-22T22:42:51.211Z,11.80
2019-04-22T22:45:31.720Z,11.80
2019-04-22T22:48:13.663Z,11.70
2019-04-22T22:50:46.415Z,11.60
2019-04-22T22:55:46.193Z,11.60
2019-04-22T22:58:24.533Z,11.50
2019-04-22T23:00:50.527Z,11.50
2019-04-22T23:03:46.022Z,11.50
2019-04-22T23:06:10.161Z,11.40
2019-04-22T23:08:32.931Z,11.30
2019-04-22T23:11:05.245Z,11.30
2019-04-22T23:13:37.144Z,11.30
2019-04-22T23:16:02.007Z,11.30
2019-04-22T23:18:19.819Z,11.30
2019-04-22T23:20:53.620Z,11.20
2019-04-22T23:23:49.334Z,11.20
2019-04-22T23:26:38.501Z,11.20
2019-04-22T23:29:07.268Z,11.10
2019-04-22T23:31:46.882Z,11.00
2019-04-22T23:34:32.482Z,11.00
2019-04-22T23:37:10.461Z,11.00
2019-04-22T23:39:54.560Z,11.00
2019-04-22T23:42:23.592Z,10.90
2019-04-22T23:44:56.315Z,10.90
2019-04-22T23:47:26.515Z,10.90
2019-04-22T23:50:01.046Z,10.90
2019-04-22T23:52:45.879Z,10.90
2019-04-22T23:55:18.096Z,10.90
2019-04-22T23:57:47.820Z,10.80
